Time;durP1;ratioP1;P1;durP2;ratioP2;P2;SDS_P1;SDS_P2;PMS_P1;PMS_P2;Temp;Humidity;BMP_temperature;BMP_pressure;BME280_temperature;BME280_humidity;BME280_pressure;Samples;Min_cycle;Max_cycle;Signal;HPM_P1;HPM_P2
2022/12/21 00:02:09;;;;;;;176.93;90.00;;;;;;;;;;4403245;32;318721;-80
2022/12/21 00:04:37;;;;;;;165.77;86.47;;;;;;;;;;4415176;32;318869;-78
2022/12/21 00:07:04;;;;;;;158.90;86.23;;;;;;;;;;4404500;32;317677;-79
2022/12/21 00:09:33;;;;;;;167.63;84.70;;;;;;;;;;4416048;32;318910;-80
2022/12/21 00:12:01;;;;;;;159.20;82.07;;;;;;;;;;4405195;32;318793;-80
2022/12/21 00:14:28;;;;;;;157.67;84.63;;;;;;;;;;4415483;32;318849;-80
2022/12/21 00:16:57;;;;;;;150.23;78.63;;;;;;;;;;4405829;32;319043;-80
2022/12/21 00:19:25;;;;;;;158.27;83.73;;;;;;;;;;4414776;32;318735;-79
2022/12/21 00:21:52;;;;;;;170.83;87.07;;;;;;;;;;4415344;32;318800;-78
2022/12/21 00:24:19;;;;;;;182.17;97.53;;;;;;;;;;4404547;32;351295;-79
2022/12/21 00:26:47;;;;;;;195.40;103.07;;;;;;;;;;4414489;32;319002;-78
2022/12/21 00:29:15;;;;;;;180.47;98.53;;;;;;;;;;4405605;32;319814;-78
2022/12/21 00:31:42;;;;;;;130.27;76.13;;;;;;;;;;4415518;32;319099;-78
2022/12/21 00:34:17;;;;;;;145.17;75.77;;;;;;;;;;4403799;32;318913;-79
2022/12/21 00:36:45;;;;;;;134.53;70.23;;;;;;;;;;4415626;32;319212;-79
2022/12/21 00:39:13;;;;;;;116.97;65.70;;;;;;;;;;4406088;32;343590;-79
2022/12/21 00:41:40;;;;;;;107.30;63.60;;;;;;;;;;4418862;32;318808;-79
2022/12/21 00:44:08;;;;;;;114.13;63.30;;;;;;;;;;4406310;32;319057;-79
2022/12/21 00:46:36;;;;;;;125.00;71.27;;;;;;;;;;4417794;32;318763;-80
2022/12/21 00:49:06;;;;;;;135.30;75.13;;;;;;;;;;4406327;32;318835;-80
2022/12/21 00:51:36;;;;;;;145.10;84.27;;;;;;;;;;4418693;32;319087;-80
2022/12/21 00:54:04;;;;;;;163.80;92.93;;;;;;;;;;4406811;32;339647;-79
2022/12/21 00:56:33;;;;;;;148.00;82.23;;;;;;;;;;4417543;32;318857;-80
2022/12/21 00:59:00;;;;;;;159.53;81.60;;;;;;;;;;4405077;32;360889;-80
2022/12/21 01:01:30;;;;;;;170.33;93.77;;;;;;;;;;4418248;32;319128;-79
2022/12/21 01:03:59;;;;;;;163.43;88.67;;;;;;;;;;4406194;32;318830;-80
2022/12/21 01:06:28;;;;;;;174.53;93.80;;;;;;;;;;4418426;32;318694;-80
2022/12/21 01:08:58;;;;;;;164.80;89.57;;;;;;;;;;4407742;32;319046;-80
2022/12/21 01:11:28;;;;;;;151.23;82.60;;;;;;;;;;4416548;32;318885;-80
2022/12/21 01:13:55;;;;;;;142.23;79.30;;;;;;;;;;4417875;32;319059;-80
2022/12/21 01:16:26;;;;;;;150.57;77.43;;;;;;;;;;4404979;32;417946;-80
2022/12/21 01:18:54;;;;;;;134.13;77.83;;;;;;;;;;4417582;32;318948;-80
2022/12/21 01:21:23;;;;;;;131.80;72.73;;;;;;;;;;4407777;32;318926;-80
2022/12/21 01:23:51;;;;;;;121.10;66.70;;;;;;;;;;4416546;32;318874;-80
2022/12/21 01:26:20;;;;;;;124.57;66.53;;;;;;;;;;4406174;32;318842;-79
2022/12/21 01:28:47;;;;;;;123.57;66.60;;;;;;;;;;4417783;32;319225;-79
2022/12/21 01:31:15;;;;;;;115.50;63.67;;;;;;;;;;4404634;32;319013;-79
2022/12/21 01:33:42;;;;;;;111.53;63.50;;;;;;;;;;4417521;32;319129;-79
2022/12/21 01:36:12;;;;;;;118.57;64.30;;;;;;;;;;4407684;32;319155;-79
2022/12/21 01:38:41;;;;;;;128.93;68.13;;;;;;;;;;4416093;32;319048;-79
2022/12/21 01:41:13;;;;;;;110.23;64.23;;;;;;;;;;4407268;32;318983;-80
2022/12/21 01:43:44;;;;;;;129.87;70.07;;;;;;;;;;4417124;32;326424;-80
2022/12/21 01:46:14;;;;;;;127.63;68.80;;;;;;;;;;4407043;32;318808;-79
2022/12/21 01:48:46;;;;;;;161.40;80.70;;;;;;;;;;4415624;32;318884;-79
2022/12/21 01:51:15;;;;;;;188.53;96.60;;;;;;;;;;4406553;32;319238;-79
2022/12/21 01:53:46;;;;;;;183.20;90.37;;;;;;;;;;4417244;32;319115;-79
2022/12/21 01:56:16;;;;;;;173.73;86.97;;;;;;;;;;4406103;32;318810;-80
2022/12/21 01:58:45;;;;;;;167.33;85.20;;;;;;;;;;4416370;32;319041;-80
2022/12/21 02:01:12;;;;;;;179.33;94.27;;;;;;;;;;4405491;32;319218;-79
2022/12/21 02:03:44;;;;;;;176.00;91.50;;;;;;;;;;4416724;32;319005;-80
2022/12/21 02:06:17;;;;;;;171.33;90.57;;;;;;;;;;4404738;32;318971;-80
2022/12/21 02:08:44;;;;;;;191.70;90.63;;;;;;;;;;4417006;32;318941;-80
2022/12/21 02:11:12;;;;;;;125.00;69.70;;;;;;;;;;4403585;32;318945;-78
2022/12/21 02:13:40;;;;;;;132.43;70.00;;;;;;;;;;4415993;32;318852;-79
2022/12/21 02:16:23;;;;;;;84.63;49.00;;;;;;;;;;4406871;32;319150;-78
2022/12/21 02:19:26;;;;;;;92.00;47.70;;;;;;;;;;4415792;32;317463;-79
2022/12/21 02:21:57;;;;;;;79.33;42.57;;;;;;;;;;4413619;32;417491;-79
2022/12/21 02:25:03;;;;;;;75.70;43.87;;;;;;;;;;4402875;32;388948;-80
2022/12/21 02:28:09;;;;;;;79.10;44.83;;;;;;;;;;4405468;32;388637;-80
2022/12/21 02:30:53;;;;;;;103.80;54.10;;;;;;;;;;4404610;32;388857;-80
2022/12/21 02:33:32;;;;;;;92.33;53.10;;;;;;;;;;4404445;32;319008;-80
2022/12/21 02:36:12;;;;;;;82.13;45.83;;;;;;;;;;4404055;32;349356;-80
2022/12/21 02:38:51;;;;;;;78.40;44.43;;;;;;;;;;4416460;32;318261;-79
2022/12/21 02:41:32;;;;;;;90.23;47.33;;;;;;;;;;4405468;32;317806;-79
2022/12/21 02:44:13;;;;;;;85.60;46.63;;;;;;;;;;4405023;32;353031;-79
2022/12/21 02:46:48;;;;;;;83.33;47.43;;;;;;;;;;4416564;32;317594;-78
2022/12/21 02:49:23;;;;;;;81.83;44.07;;;;;;;;;;4404691;32;318182;-80
2022/12/21 02:51:58;;;;;;;79.50;44.37;;;;;;;;;;4414829;32;317631;-79
2022/12/21 02:54:30;;;;;;;82.50;46.40;;;;;;;;;;4376989;32;420936;-79
2022/12/21 02:56:57;;;;;;;94.63;47.57;;;;;;;;;;4402313;32;317884;-79
2022/12/21 02:59:30;;;;;;;88.37;50.20;;;;;;;;;;4413337;32;317972;-79
2022/12/21 03:02:44;;;;;;;95.73;52.57;;;;;;;;;;4403045;32;317982;-79
2022/12/21 03:05:31;;;;;;;93.67;53.47;;;;;;;;;;4400042;32;317738;-79
2022/12/21 03:08:11;;;;;;;87.90;47.97;;;;;;;;;;4403745;32;318086;-79
2022/12/21 03:10:49;;;;;;;87.37;48.77;;;;;;;;;;4415875;32;318078;-78
2022/12/21 03:13:24;;;;;;;90.50;47.80;;;;;;;;;;4404829;32;318180;-78
2022/12/21 03:16:00;;;;;;;103.63;53.37;;;;;;;;;;4415993;32;317791;-80
2022/12/21 03:18:35;;;;;;;100.67;50.17;;;;;;;;;;4402655;32;419060;-79
2022/12/21 03:21:08;;;;;;;109.80;54.67;;;;;;;;;;4404511;32;319076;-79
2022/12/21 03:23:40;;;;;;;109.70;55.03;;;;;;;;;;4415706;32;319218;-78
2022/12/21 03:26:14;;;;;;;128.20;60.47;;;;;;;;;;4405184;32;318960;-79
2022/12/21 03:28:44;;;;;;;180.87;72.83;;;;;;;;;;4415688;32;317804;-79
2022/12/21 03:31:15;;;;;;;176.37;72.23;;;;;;;;;;4403897;32;318970;-79
2022/12/21 03:33:48;;;;;;;157.97;69.17;;;;;;;;;;4416501;32;317630;-79
2022/12/21 03:36:20;;;;;;;146.37;68.13;;;;;;;;;;4405093;32;319017;-78
2022/12/21 03:38:52;;;;;;;134.17;58.57;;;;;;;;;;4415715;32;331362;-80
2022/12/21 03:41:23;;;;;;;108.20;53.87;;;;;;;;;;4405279;32;318882;-79
2022/12/21 03:43:53;;;;;;;109.10;52.73;;;;;;;;;;4415779;32;318922;-80
2022/12/21 03:46:25;;;;;;;90.67;48.67;;;;;;;;;;4404020;32;330946;-79
2022/12/21 03:48:58;;;;;;;91.07;47.67;;;;;;;;;;4415076;32;338003;-79
2022/12/21 03:51:33;;;;;;;76.30;44.60;;;;;;;;;;4403394;32;417740;-79
2022/12/21 03:54:09;;;;;;;74.67;46.10;;;;;;;;;;4403086;32;317570;-78
2022/12/21 03:56:39;;;;;;;83.30;48.73;;;;;;;;;;4415725;32;318097;-79
2022/12/21 03:59:08;;;;;;;87.00;48.10;;;;;;;;;;4405957;32;317913;-79
2022/12/21 04:01:44;;;;;;;80.77;46.63;;;;;;;;;;4413872;32;317902;-78
2022/12/21 04:04:24;;;;;;;104.57;57.17;;;;;;;;;;4404503;32;317829;-78
2022/12/21 04:06:54;;;;;;;100.13;57.37;;;;;;;;;;4415896;32;319325;-80
2022/12/21 04:09:22;;;;;;;93.40;57.93;;;;;;;;;;4402834;32;418879;-79
2022/12/21 04:14:34;;;;;;;97.27;59.50;;;;;;;;;;4406736;32;389931;-78
2022/12/21 04:17:03;;;;;;;107.53;59.30;;;;;;;;;;4406450;32;346043;-78
2022/12/21 04:28:07;;;;;;;101.47;57.93;;;;;;;;;;4408904;32;318866;-78
2022/12/21 04:30:33;;;;;;;103.50;59.97;;;;;;;;;;4374668;32;390185;-79
2022/12/21 04:33:00;;;;;;;112.77;62.43;;;;;;;;;;4377578;32;318657;-79
2022/12/21 04:35:29;;;;;;;119.17;63.00;;;;;;;;;;4387790;32;318823;-79
2022/12/21 04:37:56;;;;;;;116.77;66.53;;;;;;;;;;4374727;32;318804;-79
2022/12/21 04:40:23;;;;;;;112.23;65.83;;;;;;;;;;4388005;32;318860;-79
2022/12/21 04:42:50;;;;;;;113.70;62.37;;;;;;;;;;4387172;32;318821;-79
2022/12/21 04:45:18;;;;;;;108.63;63.83;;;;;;;;;;4376073;32;318733;-79
2022/12/21 04:47:47;;;;;;;113.53;62.60;;;;;;;;;;4386861;32;318615;-78
2022/12/21 04:50:15;;;;;;;102.67;63.60;;;;;;;;;;4377989;32;318733;-79
2022/12/21 04:52:43;;;;;;;121.23;66.73;;;;;;;;;;4386603;32;319186;-78
2022/12/21 04:55:11;;;;;;;120.43;65.97;;;;;;;;;;4375525;32;318765;-78
2022/12/21 04:57:38;;;;;;;123.07;67.50;;;;;;;;;;4386775;32;318855;-79
2022/12/21 05:00:07;;;;;;;125.47;68.77;;;;;;;;;;4375856;32;335684;-79
2022/12/21 05:02:34;;;;;;;109.53;62.73;;;;;;;;;;4387730;32;318881;-79
2022/12/21 05:05:02;;;;;;;85.80;47.57;;;;;;;;;;4375936;32;342883;-78
2022/12/21 05:07:29;;;;;;;84.43;46.33;;;;;;;;;;4388037;32;317814;-77
2022/12/21 05:09:58;;;;;;;86.57;46.47;;;;;;;;;;4376674;32;317624;-80
2022/12/21 05:12:25;;;;;;;87.60;49.67;;;;;;;;;;4387795;32;317970;-77
2022/12/21 05:14:53;;;;;;;96.67;52.77;;;;;;;;;;4386614;32;317980;-78
2022/12/21 05:17:20;;;;;;;148.20;69.87;;;;;;;;;;4377244;32;317814;-78
2022/12/21 05:19:48;;;;;;;315.80;127.73;;;;;;;;;;4386447;32;318598;-79
2022/12/21 05:22:16;;;;;;;265.73;113.37;;;;;;;;;;4376900;32;319830;-80
2022/12/21 05:24:44;;;;;;;218.23;98.10;;;;;;;;;;4386349;32;319942;-79
2022/12/21 05:27:13;;;;;;;191.70;89.70;;;;;;;;;;4376818;32;318627;-80
2022/12/21 05:29:41;;;;;;;176.40;89.10;;;;;;;;;;4386275;32;325434;-79
2022/12/21 05:32:08;;;;;;;189.07;91.50;;;;;;;;;;4376052;32;318908;-79
2022/12/21 05:34:36;;;;;;;163.73;85.17;;;;;;;;;;4385486;32;359935;-80
2022/12/21 05:37:03;;;;;;;167.40;85.23;;;;;;;;;;4376412;32;318725;-80
2022/12/21 05:39:31;;;;;;;190.43;93.70;;;;;;;;;;4385958;32;335183;-79
2022/12/21 05:41:58;;;;;;;130.00;71.20;;;;;;;;;;4376551;32;318705;-78
2022/12/21 05:44:27;;;;;;;127.87;65.80;;;;;;;;;;4384824;32;318792;-77
2022/12/21 05:46:55;;;;;;;149.07;75.67;;;;;;;;;;4385962;32;318908;-79
2022/12/21 05:49:22;;;;;;;112.33;58.00;;;;;;;;;;4373134;32;418026;-79
2022/12/21 05:51:50;;;;;;;104.07;59.27;;;;;;;;;;4385822;32;319114;-79
2022/12/21 05:54:18;;;;;;;126.63;72.43;;;;;;;;;;4376373;32;319089;-78
2022/12/21 05:56:45;;;;;;;128.20;76.07;;;;;;;;;;4386811;32;318655;-76
2022/12/21 05:59:13;;;;;;;114.60;64.77;;;;;;;;;;4374519;32;318764;-78
2022/12/21 06:01:42;;;;;;;121.10;68.17;;;;;;;;;;4386338;32;318747;-78
2022/12/21 06:04:09;;;;;;;116.97;66.53;;;;;;;;;;4375749;32;318772;-77
2022/12/21 06:06:36;;;;;;;107.50;57.10;;;;;;;;;;4386989;32;318879;-78
2022/12/21 06:09:04;;;;;;;75.33;47.50;;;;;;;;;;4374146;32;345420;-77
2022/12/21 06:11:33;;;;;;;71.67;48.80;;;;;;;;;;4385915;32;318007;-79
2022/12/21 06:14:01;;;;;;;72.30;46.10;;;;;;;;;;4374225;32;317676;-79
2022/12/21 06:16:28;;;;;;;80.73;46.23;;;;;;;;;;4384513;32;317887;-79
2022/12/21 06:18:57;;;;;;;81.13;49.07;;;;;;;;;;4384455;32;351172;-79
2022/12/21 06:21:25;;;;;;;81.97;48.33;;;;;;;;;;4371925;32;387186;-79
2022/12/21 06:23:52;;;;;;;87.90;48.93;;;;;;;;;;4405664;32;318047;-79
2022/12/21 06:26:21;;;;;;;152.17;88.23;;;;;;;;;;4402985;32;347847;-79
2022/12/21 06:28:49;;;;;;;141.50;81.20;;;;;;;;;;4415656;32;318679;-79
2022/12/21 06:31:17;;;;;;;131.00;77.00;;;;;;;;;;4406739;32;319073;-78
2022/12/21 06:33:44;;;;;;;89.83;49.67;;;;;;;;;;4414958;32;318755;-80
2022/12/21 06:36:13;;;;;;;119.07;73.33;;;;;;;;;;4404846;32;317774;-81
2022/12/21 06:38:41;;;;;;;111.70;54.77;;;;;;;;;;4415771;32;319042;-80
2022/12/21 06:41:10;;;;;;;94.60;55.60;;;;;;;;;;4404288;32;319088;-81
2022/12/21 06:43:39;;;;;;;93.03;51.37;;;;;;;;;;4414650;32;357513;-81
2022/12/21 06:46:09;;;;;;;82.73;52.60;;;;;;;;;;4405909;32;317643;-82
2022/12/21 06:48:38;;;;;;;96.70;57.30;;;;;;;;;;4416326;32;317822;-81
2022/12/21 06:51:07;;;;;;;115.30;65.93;;;;;;;;;;4404088;32;317851;-82
2022/12/21 06:53:39;;;;;;;160.10;90.73;;;;;;;;;;4416516;32;318771;-81
2022/12/21 06:56:08;;;;;;;169.60;97.77;;;;;;;;;;4406466;32;319173;-81
2022/12/21 06:58:36;;;;;;;130.73;77.83;;;;;;;;;;4416301;32;318784;-82
2022/12/21 07:01:06;;;;;;;126.27;75.57;;;;;;;;;;4404557;32;319457;-79
2022/12/21 07:03:33;;;;;;;116.43;70.87;;;;;;;;;;4414059;32;319463;-78
2022/12/21 07:06:01;;;;;;;102.57;61.77;;;;;;;;;;4406091;32;318915;-78
2022/12/21 07:08:28;;;;;;;106.03;60.73;;;;;;;;;;4413974;32;318982;-78
2022/12/21 07:11:02;;;;;;;125.23;71.50;;;;;;;;;;4414791;32;318785;-78
2022/12/21 07:13:30;;;;;;;110.33;60.97;;;;;;;;;;4401732;32;419286;-79
2022/12/21 07:15:58;;;;;;;95.17;55.23;;;;;;;;;;4402807;32;318821;-79
2022/12/21 07:18:26;;;;;;;101.87;55.17;;;;;;;;;;4416139;32;317594;-80
2022/12/21 07:20:58;;;;;;;104.70;55.83;;;;;;;;;;4414983;32;318711;-78
2022/12/21 07:23:26;;;;;;;115.17;58.60;;;;;;;;;;4401458;32;417962;-77
2022/12/21 07:25:53;;;;;;;107.83;59.20;;;;;;;;;;4414364;32;318911;-85
2022/12/21 07:28:22;;;;;;;111.93;57.30;;;;;;;;;;4404011;32;318885;-78
2022/12/21 07:30:50;;;;;;;126.20;67.37;;;;;;;;;;4415072;32;318978;-78
2022/12/21 07:33:18;;;;;;;118.47;56.07;;;;;;;;;;4394262;32;318912;-78
2022/12/21 07:35:45;;;;;;;85.80;46.40;;;;;;;;;;4403259;32;319063;-77
2022/12/21 07:38:13;;;;;;;76.13;41.97;;;;;;;;;;4403310;32;317920;-77
2022/12/21 07:40:41;;;;;;;75.37;41.90;;;;;;;;;;4415924;32;317920;-79
2022/12/21 07:43:09;;;;;;;84.40;44.80;;;;;;;;;;4403946;32;317769;-79
2022/12/21 07:45:38;;;;;;;119.47;60.63;;;;;;;;;;4416101;32;317815;-79
2022/12/21 07:48:06;;;;;;;146.93;68.13;;;;;;;;;;4408067;32;318969;-78
2022/12/21 07:50:33;;;;;;;161.93;75.73;;;;;;;;;;4419085;32;318893;-78
2022/12/21 07:53:01;;;;;;;150.33;71.43;;;;;;;;;;4405733;32;318639;-78
2022/12/21 07:55:28;;;;;;;142.33;70.40;;;;;;;;;;4417828;32;318857;-79
2022/12/21 07:57:56;;;;;;;162.57;80.97;;;;;;;;;;4418845;32;318874;-78
2022/12/21 08:00:24;;;;;;;202.67;94.17;;;;;;;;;;4405700;32;418015;-79
2022/12/21 08:02:53;;;;;;;176.23;89.23;;;;;;;;;;4418851;32;318861;-79
2022/12/21 08:05:20;;;;;;;256.30;123.30;;;;;;;;;;4407554;32;319043;-86
2022/12/21 08:07:48;;;;;;;173.83;90.87;;;;;;;;;;4417380;32;319952;-82
2022/12/21 08:10:17;;;;;;;202.97;98.27;;;;;;;;;;4407465;32;318790;-82
2022/12/21 08:12:45;;;;;;;177.57;90.17;;;;;;;;;;4418595;32;319180;-82
2022/12/21 08:15:13;;;;;;;217.47;103.27;;;;;;;;;;4406147;32;318866;-81
2022/12/21 08:17:40;;;;;;;190.53;96.17;;;;;;;;;;4416869;32;320069;-82
2022/12/21 08:20:11;;;;;;;197.37;102.30;;;;;;;;;;4405171;32;318805;-81
2022/12/21 08:22:39;;;;;;;176.50;91.13;;;;;;;;;;4417697;32;319987;-80
2022/12/21 08:25:07;;;;;;;198.30;100.50;;;;;;;;;;4408619;32;319307;-81
2022/12/21 08:27:35;;;;;;;213.10;102.07;;;;;;;;;;4417338;32;319559;-82
2022/12/21 08:30:02;;;;;;;198.10;102.80;;;;;;;;;;4405990;32;347615;-82
2022/12/21 08:32:31;;;;;;;194.93;102.07;;;;;;;;;;4416119;32;319902;-82
2022/12/21 08:34:58;;;;;;;200.80;101.07;;;;;;;;;;4403659;32;404336;-82
2022/12/21 08:37:27;;;;;;;182.30;100.40;;;;;;;;;;4417707;32;319724;-81
2022/12/21 08:39:55;;;;;;;180.87;97.93;;;;;;;;;;4417947;32;319512;-81
2022/12/21 08:42:22;;;;;;;167.70;93.13;;;;;;;;;;4402516;32;417809;-82
2022/12/21 08:44:50;;;;;;;175.60;93.80;;;;;;;;;;4417222;32;318965;-81
2022/12/21 08:47:17;;;;;;;163.93;87.37;;;;;;;;;;4405507;32;318890;-81
2022/12/21 08:49:45;;;;;;;184.53;95.50;;;;;;;;;;4418560;32;318669;-80
2022/12/21 08:52:12;;;;;;;191.23;99.83;;;;;;;;;;4405140;32;318887;-80
2022/12/21 08:54:41;;;;;;;199.90;98.63;;;;;;;;;;4416337;32;318710;-81
2022/12/21 08:57:08;;;;;;;202.97;102.43;;;;;;;;;;4404940;32;318937;-81
2022/12/21 08:59:36;;;;;;;179.73;95.53;;;;;;;;;;4417469;32;319831;-82
2022/12/21 09:02:05;;;;;;;192.33;100.60;;;;;;;;;;4405917;32;318610;-79
2022/12/21 09:04:33;;;;;;;170.87;93.73;;;;;;;;;;4418272;32;319781;-80
2022/12/21 09:07:00;;;;;;;158.30;92.83;;;;;;;;;;4405401;32;318835;-81
2022/12/21 09:09:28;;;;;;;152.57;86.37;;;;;;;;;;4415054;32;318732;-83
2022/12/21 09:11:56;;;;;;;150.90;85.67;;;;;;;;;;4415982;32;319055;-82
2022/12/21 09:14:25;;;;;;;125.63;69.30;;;;;;;;;;4403565;32;417773;-80
2022/12/21 09:16:53;;;;;;;99.37;56.90;;;;;;;;;;4417302;32;318810;-81
2022/12/21 09:19:21;;;;;;;91.77;52.57;;;;;;;;;;4403097;32;317954;-81
2022/12/21 09:21:49;;;;;;;100.77;56.90;;;;;;;;;;4416283;32;317870;-80
2022/12/21 09:24:23;;;;;;;100.10;52.73;;;;;;;;;;4406418;32;319403;-82
2022/12/21 09:26:52;;;;;;;100.13;53.87;;;;;;;;;;4403331;32;319095;-83
2022/12/21 09:29:23;;;;;;;108.93;57.10;;;;;;;;;;4404099;32;327316;-82
2022/12/21 09:31:51;;;;;;;114.37;54.80;;;;;;;;;;4416212;32;318538;-81
2022/12/21 09:34:19;;;;;;;101.43;52.17;;;;;;;;;;4404340;32;319185;-82
2022/12/21 09:36:47;;;;;;;90.73;51.20;;;;;;;;;;4416666;32;318884;-81
2022/12/21 09:39:14;;;;;;;87.43;51.23;;;;;;;;;;4405189;32;317715;-81
2022/12/21 09:42:07;;;;;;;92.53;50.40;;;;;;;;;;4416694;32;318003;-82
2022/12/21 09:44:59;;;;;;;96.03;53.43;;;;;;;;;;4400835;32;417060;-81
2022/12/21 09:47:34;;;;;;;108.90;55.13;;;;;;;;;;4401520;32;421240;-83
2022/12/21 09:50:04;;;;;;;103.87;56.80;;;;;;;;;;4403523;32;319081;-80
2022/12/21 09:52:37;;;;;;;105.23;58.97;;;;;;;;;;4416382;32;318908;-82
2022/12/21 09:55:07;;;;;;;105.07;57.10;;;;;;;;;;4405359;32;319011;-81
2022/12/21 09:57:36;;;;;;;105.20;59.30;;;;;;;;;;4416480;32;318868;-79
2022/12/21 10:00:17;;;;;;;105.10;57.13;;;;;;;;;;4404990;32;318866;-80
2022/12/21 10:03:20;;;;;;;106.17;59.70;;;;;;;;;;4416950;32;318977;-80
2022/12/21 10:06:05;;;;;;;108.80;60.23;;;;;;;;;;4401703;32;422094;-80
2022/12/21 10:08:52;;;;;;;99.83;58.63;;;;;;;;;;4403982;32;419256;-80
2022/12/21 10:11:28;;;;;;;105.37;58.80;;;;;;;;;;4406431;32;317737;-80
2022/12/21 10:14:04;;;;;;;92.43;54.23;;;;;;;;;;4416988;32;318661;-80
2022/12/21 10:16:43;;;;;;;84.27;50.37;;;;;;;;;;4401381;32;418568;-82
2022/12/21 10:19:21;;;;;;;91.60;50.63;;;;;;;;;;4407037;32;317919;-81
2022/12/21 10:21:58;;;;;;;93.40;53.23;;;;;;;;;;4415203;32;317974;-81
2022/12/21 10:24:29;;;;;;;84.20;47.30;;;;;;;;;;4401783;32;418544;-80
2022/12/21 10:27:03;;;;;;;72.40;43.87;;;;;;;;;;4407812;32;318119;-88
2022/12/21 10:29:34;;;;;;;81.87;49.20;;;;;;;;;;4417375;32;317725;-84
2022/12/21 10:32:03;;;;;;;74.23;45.30;;;;;;;;;;4404155;32;317858;-81
2022/12/21 10:34:35;;;;;;;67.10;40.03;;;;;;;;;;4415995;32;318190;-83
2022/12/21 10:37:07;;;;;;;59.03;37.37;;;;;;;;;;4404836;32;344676;-83
2022/12/21 10:39:34;;;;;;;55.47;34.47;;;;;;;;;;4415905;32;317745;-83
2022/12/21 10:42:06;;;;;;;51.70;33.87;;;;;;;;;;4403180;32;317765;-83
2022/12/21 10:44:36;;;;;;;55.03;32.23;;;;;;;;;;4416414;32;317834;-82
2022/12/21 10:47:12;;;;;;;52.10;31.87;;;;;;;;;;4401932;32;340785;-84
2022/12/21 10:49:43;;;;;;;46.20;29.23;;;;;;;;;;4415588;32;317731;-84
2022/12/21 10:52:36;;;;;;;47.53;29.53;;;;;;;;;;4406037;32;325262;-82
2022/12/21 10:55:04;;;;;;;47.23;32.07;;;;;;;;;;4405576;32;317773;-85
2022/12/21 10:57:33;;;;;;;46.80;28.77;;;;;;;;;;4415297;32;317993;-82
2022/12/21 11:00:21;;;;;;;56.63;28.67;;;;;;;;;;4402134;32;318225;-83
2022/12/21 11:02:51;;;;;;;48.33;30.53;;;;;;;;;;4415348;32;317979;-83
2022/12/21 11:05:32;;;;;;;58.37;29.10;;;;;;;;;;4405600;32;318003;-82
2022/12/21 11:08:15;;;;;;;46.13;30.67;;;;;;;;;;4404593;32;317761;-83
2022/12/21 11:10:45;;;;;;;49.83;27.90;;;;;;;;;;4416039;32;317942;-80
2022/12/21 11:13:13;;;;;;;45.33;29.43;;;;;;;;;;4404457;32;317975;-82
2022/12/21 11:15:51;;;;;;;53.13;33.33;;;;;;;;;;4414862;32;317773;-82
2022/12/21 11:18:44;;;;;;;51.53;30.57;;;;;;;;;;4404176;32;317890;-80
2022/12/21 11:21:33;;;;;;;56.40;31.87;;;;;;;;;;4405431;32;318190;-81
2022/12/21 11:24:03;;;;;;;39.87;27.73;;;;;;;;;;4405314;32;343061;-82
2022/12/21 11:26:35;;;;;;;40.43;25.03;;;;;;;;;;4415686;32;317960;-81
2022/12/21 11:29:05;;;;;;;48.23;27.73;;;;;;;;;;4405721;32;317961;-82
2022/12/21 11:31:34;;;;;;;44.00;28.13;;;;;;;;;;4412704;32;317792;-81
2022/12/21 11:34:03;;;;;;;44.70;29.37;;;;;;;;;;4404244;32;317890;-80
2022/12/21 11:36:31;;;;;;;49.57;28.87;;;;;;;;;;4415082;32;317878;-83
2022/12/21 11:38:59;;;;;;;48.40;30.50;;;;;;;;;;4405210;32;318135;-82
2022/12/21 11:41:29;;;;;;;51.70;29.57;;;;;;;;;;4414961;32;331746;-83
2022/12/21 11:43:57;;;;;;;48.90;30.27;;;;;;;;;;4415430;32;317763;-82
2022/12/21 11:46:51;;;;;;;52.63;31.43;;;;;;;;;;4399928;32;417167;-82
2022/12/21 11:49:49;;;;;;;43.20;30.57;;;;;;;;;;4391615;32;318350;-82
2022/12/21 11:52:27;;;;;;;48.73;30.63;;;;;;;;;;4404460;32;318190;-84
2022/12/21 11:55:03;;;;;;;57.13;34.90;;;;;;;;;;4414329;32;319603;-85
2022/12/21 11:57:40;;;;;;;55.80;35.47;;;;;;;;;;4403059;32;418379;-84
2022/12/21 12:00:13;;;;;;;64.07;35.93;;;;;;;;;;4405598;32;317947;-84
2022/12/21 12:03:07;;;;;;;55.77;32.33;;;;;;;;;;4414034;32;348361;-83
2022/12/21 12:05:49;;;;;;;59.63;34.03;;;;;;;;;;4402510;32;418290;-82
2022/12/21 12:08:34;;;;;;;48.77;33.73;;;;;;;;;;4404945;32;359531;-84
2022/12/21 12:11:13;;;;;;;58.63;36.13;;;;;;;;;;4404829;32;318026;-84
2022/12/21 12:13:58;;;;;;;58.43;37.43;;;;;;;;;;4415208;32;317767;-82
2022/12/21 12:16:40;;;;;;;67.00;41.20;;;;;;;;;;4401780;32;418258;-86
2022/12/21 12:19:18;;;;;;;62.17;38.20;;;;;;;;;;4419512;32;317581;-91
2022/12/21 12:22:19;;;;;;;73.27;38.83;;;;;;;;;;4429665;32;317434;-92
2022/12/21 12:25:38;;;;;;;67.93;38.33;;;;;;;;;;4374597;32;386940;-90
2022/12/21 12:28:30;;;;;;;67.47;38.93;;;;;;;;;;4355905;32;417131;-92
2022/12/21 12:31:13;;;;;;;64.03;39.83;;;;;;;;;;4377589;32;317619;-89
2022/12/21 12:33:57;;;;;;;73.13;42.27;;;;;;;;;;4387289;32;317641;-91
2022/12/21 12:36:34;;;;;;;76.27;46.27;;;;;;;;;;4387251;32;389373;-93
2022/12/21 12:39:12;;;;;;;71.27;44.37;;;;;;;;;;4381257;32;317609;-92
2022/12/21 12:41:49;;;;;;;72.07;42.87;;;;;;;;;;4391133;32;324561;-96
2022/12/21 12:44:28;;;;;;;70.73;44.20;;;;;;;;;;4384918;32;317877;-90
2022/12/21 12:47:05;;;;;;;75.13;43.47;;;;;;;;;;4394394;32;317792;-86
2022/12/21 12:50:02;;;;;;;66.13;42.60;;;;;;;;;;4376687;32;418256;-86
2022/12/21 12:52:43;;;;;;;72.90;45.33;;;;;;;;;;4375177;32;418376;-86
2022/12/21 12:55:22;;;;;;;75.30;47.07;;;;;;;;;;4378435;32;321044;-87
2022/12/21 12:57:59;;;;;;;77.73;46.17;;;;;;;;;;4387136;32;356347;-84
2022/12/21 13:00:29;;;;;;;81.03;45.00;;;;;;;;;;4378127;32;418976;-84
2022/12/21 13:03:08;;;;;;;68.27;43.73;;;;;;;;;;4388345;32;317802;-84
2022/12/21 13:05:48;;;;;;;65.50;42.40;;;;;;;;;;4374332;32;417593;-84
2022/12/21 13:08:28;;;;;;;74.53;47.73;;;;;;;;;;4376256;32;317934;-84
2022/12/21 13:11:06;;;;;;;72.50;45.97;;;;;;;;;;4389719;32;317825;-87
2022/12/21 13:13:37;;;;;;;61.13;40.20;;;;;;;;;;4376367;32;417915;-84
2022/12/21 13:16:09;;;;;;;75.20;43.03;;;;;;;;;;4378552;32;337031;-89
2022/12/21 13:18:40;;;;;;;82.40;44.20;;;;;;;;;;4389816;32;356074;-86
2022/12/21 13:21:09;;;;;;;67.57;42.07;;;;;;;;;;4376310;32;317905;-82
2022/12/21 13:23:44;;;;;;;74.03;43.30;;;;;;;;;;4402293;32;318025;-83
2022/12/21 13:26:16;;;;;;;74.67;43.60;;;;;;;;;;4406719;32;346515;-84
2022/12/21 13:28:52;;;;;;;70.40;41.37;;;;;;;;;;4418434;32;318141;-84
2022/12/21 13:31:25;;;;;;;67.93;40.97;;;;;;;;;;4407213;32;317791;-84
2022/12/21 13:33:58;;;;;;;91.03;48.80;;;;;;;;;;4417754;32;317773;-79
2022/12/21 13:36:28;;;;;;;91.43;54.03;;;;;;;;;;4404384;32;417288;-84
2022/12/21 13:39:03;;;;;;;82.60;50.73;;;;;;;;;;4418002;32;317861;-84
2022/12/21 13:41:36;;;;;;;79.27;49.17;;;;;;;;;;4405602;32;387822;-85
2022/12/21 13:44:06;;;;;;;77.97;47.90;;;;;;;;;;4404782;32;359692;-88
2022/12/21 13:46:35;;;;;;;95.57;54.90;;;;;;;;;;4418285;32;318000;-83
2022/12/21 13:49:16;;;;;;;89.80;52.07;;;;;;;;;;4406730;32;318083;-81
2022/12/21 13:51:50;;;;;;;88.70;54.77;;;;;;;;;;4416085;32;317956;-81
2022/12/21 13:54:27;;;;;;;90.57;54.60;;;;;;;;;;4407027;32;317826;-83
2022/12/21 13:57:09;;;;;;;85.63;55.50;;;;;;;;;;4417633;32;317774;-81
2022/12/21 13:59:46;;;;;;;87.53;56.57;;;;;;;;;;4401766;32;418029;-84
2022/12/21 14:02:46;;;;;;;100.07;54.13;;;;;;;;;;4406838;32;317880;-83
2022/12/21 14:05:17;;;;;;;73.03;47.80;;;;;;;;;;4390308;32;319104;-83
2022/12/21 14:08:17;;;;;;;78.70;50.97;;;;;;;;;;4416481;32;318015;-82
2022/12/21 14:10:57;;;;;;;89.73;56.87;;;;;;;;;;4377985;32;420995;-84
2022/12/21 14:14:02;;;;;;;115.13;61.67;;;;;;;;;;4404502;32;418409;-83
2022/12/21 14:16:33;;;;;;;133.67;67.13;;;;;;;;;;4372010;32;419521;-85
2022/12/21 14:19:02;;;;;;;127.73;70.80;;;;;;;;;;4405163;32;347319;-84
2022/12/21 14:21:31;;;;;;;123.27;73.53;;;;;;;;;;4417246;32;319015;-84
2022/12/21 14:24:02;;;;;;;156.40;88.70;;;;;;;;;;4404574;32;318945;-85
2022/12/21 14:26:37;;;;;;;151.60;92.10;;;;;;;;;;4417333;32;318862;-83
2022/12/21 14:29:14;;;;;;;157.17;94.30;;;;;;;;;;4406687;32;319235;-83
2022/12/21 14:31:50;;;;;;;174.60;98.43;;;;;;;;;;4416368;32;318646;-80
2022/12/21 14:34:20;;;;;;;169.77;100.07;;;;;;;;;;4406823;32;318970;-81
2022/12/21 14:37:07;;;;;;;162.43;91.43;;;;;;;;;;4417092;32;320244;-81
2022/12/21 14:39:39;;;;;;;153.77;85.27;;;;;;;;;;4403015;32;419269;-82